Terminal Aerodrome Forecast
Issued by NWS Cleveland, OH

Home | Current Version | Previous Version | Text Only | Print | Product List | Glossary On
Versions: 1 2 3 4 5 6 7 8 9 10 11 12 13 14 15 16 17 18
000
FTUS41 KCLE 251700
TAFCAK
TAF
KCAK 251724Z 2518/2618 23010G20KT P6SM BKN070
     FM251900 26010G20KT P6SM SKC
     FM261500 29010G15KT P6SM SKC=

USA.gov is the U.S. government's official web portal to all federal, state and local government web resources and services.